createdAt,value
2024-02-02T00:02:00.054Z,9.65
2024-02-02T00:04:28.929Z,9.64
2024-02-02T00:06:57.270Z,9.68
2024-02-02T00:09:25.646Z,9.72
2024-02-02T00:11:53.960Z,9.76
2024-02-02T00:14:23.637Z,9.79
2024-02-02T00:16:51.801Z,9.81
2024-02-02T00:19:20.328Z,9.89
2024-02-02T00:21:48.708Z,9.89
2024-02-02T00:24:16.906Z,9.95
2024-02-02T00:26:45.020Z,9.95
2024-02-02T00:29:13.725Z,9.95
2024-02-02T00:31:43.446Z,9.92
2024-02-02T00:34:11.992Z,9.88
2024-02-02T00:36:40.100Z,9.85
2024-02-02T00:39:08.231Z,9.83
2024-02-02T00:41:36.493Z,9.82
2024-02-02T00:44:07.476Z,9.82
2024-02-02T00:46:35.744Z,9.84
2024-02-02T00:49:05.522Z,9.85
2024-02-02T00:51:33.890Z,9.85
2024-02-02T00:54:02.101Z,9.87
2024-02-02T00:56:30.398Z,9.89
2024-02-02T00:58:58.522Z,9.92
2024-02-02T01:01:26.702Z,9.93
2024-02-02T01:03:54.994Z,9.94
2024-02-02T01:06:24.731Z,9.96
2024-02-02T01:08:53.283Z,9.96
2024-02-02T01:11:21.647Z,9.98
2024-02-02T01:13:49.738Z,9.98
2024-02-02T01:16:17.966Z,9.98
2024-02-02T01:18:46.256Z,9.98
2024-02-02T01:21:15.020Z,9.95
2024-02-02T01:23:44.525Z,9.96
2024-02-02T01:26:12.696Z,9.98
2024-02-02T01:28:40.943Z,9.97
2024-02-02T01:31:09.064Z,9.97
2024-02-02T01:33:37.588Z,9.99
2024-02-02T01:36:06.033Z,9.99
2024-02-02T01:38:34.224Z,9.98
2024-02-02T01:41:03.769Z,9.99
2024-02-02T01:43:31.894Z,10.01
2024-02-02T01:46:00.001Z,10.01
2024-02-02T01:48:28.334Z,10.01
2024-02-02T01:50:56.678Z,10.03
2024-02-02T01:53:24.936Z,10.05
2024-02-02T01:55:53.137Z,10.02
2024-02-02T01:58:22.905Z,10.06
2024-02-02T02:00:51.083Z,10.05
2024-02-02T02:03:19.644Z,10.06
2024-02-02T02:05:47.903Z,10.09
2024-02-02T02:08:16.180Z,10.13
2024-02-02T02:10:46.282Z,10.12
2024-02-02T02:13:14.684Z,10.12
2024-02-02T02:15:44.428Z,10.16
2024-02-02T02:18:12.740Z,10.17
2024-02-02T02:20:41.924Z,10.21
2024-02-02T02:23:12.148Z,10.23
2024-02-02T02:25:40.963Z,10.26
2024-02-02T02:28:09.117Z,10.28
2024-02-02T02:30:37.409Z,10.28
2024-02-02T02:33:06.740Z,10.28
2024-02-02T02:35:35.153Z,10.29
2024-02-02T02:38:03.359Z,10.31
2024-02-02T02:40:32.901Z,10.36
2024-02-02T02:43:01.616Z,10.40
2024-02-02T02:45:29.902Z,10.38
2024-02-02T02:47:58.260Z,10.37
2024-02-02T02:50:26.474Z,10.38
2024-02-02T02:52:54.643Z,10.41
2024-02-02T02:55:22.873Z,10.41
2024-02-02T02:57:54.467Z,10.42
2024-02-02T03:00:28.735Z,10.44
2024-02-02T03:02:57.261Z,10.46
2024-02-02T03:05:26.327Z,10.46
2024-02-02T03:07:54.782Z,10.47
2024-02-02T03:10:23.352Z,10.46
2024-02-02T03:12:53.073Z,10.47
2024-02-02T03:15:21.247Z,10.45
2024-02-02T03:17:50.338Z,10.44
2024-02-02T03:20:18.855Z,10.46
2024-02-02T03:22:47.371Z,10.47
2024-02-02T03:25:15.732Z,10.46
2024-02-02T03:27:43.942Z,10.46
2024-02-02T03:30:15.345Z,10.47
2024-02-02T03:32:44.273Z,10.46
2024-02-02T03:35:12.602Z,10.45
2024-02-02T03:37:40.820Z,10.44
2024-02-02T03:40:10.328Z,10.43
2024-02-02T03:42:38.597Z,10.45
2024-02-02T03:45:08.588Z,10.47
2024-02-02T03:47:38.317Z,10.49
2024-02-02T03:50:07.163Z,10.48
2024-02-02T03:52:35.496Z,10.49
2024-02-02T03:55:04.340Z,10.53
2024-02-02T03:57:32.612Z,10.54
2024-02-02T04:00:00.898Z,10.55
2024-02-02T04:02:29.087Z,10.53
2024-02-02T04:04:58.748Z,10.55
2024-02-02T04:07:26.909Z,10.57
2024-02-02T04:09:55.058Z,10.58
2024-02-02T04:12:23.182Z,10.59
2024-02-02T04:14:51.497Z,10.59
2024-02-02T04:17:18.675Z,10.62
2024-02-02T04:19:46.850Z,10.64
2024-02-02T04:22:18.214Z,10.65
2024-02-02T04:24:46.575Z,10.63
2024-02-02T04:27:14.944Z,10.64
2024-02-02T04:29:43.188Z,10.64
2024-02-02T04:32:11.323Z,10.67
2024-02-02T04:34:39.667Z,10.67
2024-02-02T04:37:07.915Z,10.67
2024-02-02T04:39:37.546Z,10.67
2024-02-02T04:42:07.363Z,10.67
2024-02-02T04:44:36.869Z,10.64
2024-02-02T04:47:05.496Z,10.62
2024-02-02T04:49:34.057Z,10.63
2024-02-02T04:52:02.332Z,10.64
2024-02-02T04:54:30.706Z,10.63
2024-02-02T04:57:00.345Z,10.62
2024-02-02T04:59:28.517Z,10.63
2024-02-02T05:01:56.858Z,10.63
2024-02-02T05:04:25.378Z,10.65
2024-02-02T05:06:53.875Z,10.64
2024-02-02T05:09:22.703Z,10.65
2024-02-02T05:11:50.917Z,10.67
2024-02-02T05:14:20.482Z,10.69
2024-02-02T05:16:48.808Z,10.68
2024-02-02T05:19:17.334Z,10.72
2024-02-02T05:21:45.664Z,10.73
2024-02-02T05:24:26.343Z,10.76
2024-02-02T05:27:01.994Z,10.75
2024-02-02T05:29:31.976Z,10.77
2024-02-02T05:32:00.313Z,10.78
2024-02-02T05:34:28.566Z,10.79
2024-02-02T05:36:56.751Z,10.78
2024-02-02T05:39:24.885Z,10.78
2024-02-02T05:41:53.483Z,10.78
2024-02-02T05:44:21.658Z,10.78
2024-02-02T05:46:51.218Z,10.77
2024-02-02T05:49:19.538Z,10.77
2024-02-02T05:51:47.824Z,10.75
2024-02-02T05:54:16.178Z,10.74
2024-02-02T05:56:44.335Z,10.74
2024-02-02T05:59:12.456Z,10.73
2024-02-02T06:01:40.749Z,10.72
2024-02-02T06:04:10.804Z,10.70
2024-02-02T06:06:39.179Z,10.70
2024-02-02T06:09:07.601Z,10.70
2024-02-02T06:11:35.837Z,10.69
2024-02-02T06:14:03.942Z,10.69
2024-02-02T06:16:32.135Z,10.66
2024-02-02T06:19:00.473Z,10.64
2024-02-02T06:21:30.253Z,10.66
2024-02-02T06:23:58.607Z,10.65
2024-02-02T06:26:26.785Z,10.65
2024-02-02T06:28:55.124Z,10.65
2024-02-02T06:31:25.576Z,10.67
2024-02-02T06:33:54.136Z,10.65
2024-02-02T06:36:26.087Z,10.64
2024-02-02T06:38:57.532Z,10.65
2024-02-02T06:41:25.712Z,10.66
2024-02-02T06:43:53.904Z,10.65
2024-02-02T06:46:22.183Z,10.64
2024-02-02T06:48:50.632Z,10.65
2024-02-02T06:51:18.988Z,10.66
2024-02-02T06:53:47.935Z,10.66
2024-02-02T06:56:38.945Z,10.65
2024-02-02T06:59:08.146Z,10.66
2024-02-02T07:01:36.827Z,10.66
2024-02-02T07:04:05.407Z,10.70
2024-02-02T07:06:34.736Z,10.70
2024-02-02T07:09:08.191Z,10.72
2024-02-02T07:12:00.752Z,10.72
2024-02-02T07:15:01.084Z,10.74
2024-02-02T07:17:37.696Z,10.72
2024-02-02T07:20:11.348Z,10.74
2024-02-02T07:22:40.667Z,10.75
2024-02-02T07:25:10.730Z,10.74
2024-02-02T07:28:04.446Z,10.71
2024-02-02T07:30:50.901Z,10.69
2024-02-02T07:33:27.837Z,10.67
2024-02-02T07:35:59.587Z,10.65
2024-02-02T07:38:50.720Z,10.63
2024-02-02T07:41:20.183Z,10.62
2024-02-02T07:43:49.772Z,10.65
2024-02-02T07:46:18.619Z,10.65
2024-02-02T07:48:49.387Z,10.70
2024-02-02T07:51:19.592Z,10.73
2024-02-02T07:53:48.486Z,10.76
2024-02-02T07:56:19.275Z,10.79
2024-02-02T07:58:47.595Z,10.82
2024-02-02T08:01:17.312Z,10.84
2024-02-02T08:03:45.620Z,10.86
2024-02-02T08:06:14.802Z,10.89
2024-02-02T08:08:43.580Z,10.89
2024-02-02T08:11:11.752Z,10.91
2024-02-02T08:13:39.873Z,10.94
2024-02-02T08:16:08.312Z,10.97
2024-02-02T08:18:40.208Z,11.00
2024-02-02T08:21:09.471Z,11.01
2024-02-02T08:23:38.823Z,11.02
2024-02-02T08:26:07.791Z,11.03
2024-02-02T08:28:45.289Z,11.01
2024-02-02T08:31:20.014Z,11.06
2024-02-02T08:33:49.676Z,11.05
2024-02-02T08:36:19.602Z,11.05
2024-02-02T08:38:47.983Z,11.06
2024-02-02T08:41:17.831Z,11.05
2024-02-02T08:43:48.961Z,11.08
2024-02-02T08:46:22.224Z,11.08
2024-02-02T08:48:55.852Z,11.10
2024-02-02T08:51:50.947Z,11.10
2024-02-02T08:54:39.998Z,11.15
2024-02-02T08:57:36.010Z,11.19
2024-02-02T09:00:15.211Z,11.26
2024-02-02T09:02:55.396Z,11.33
2024-02-02T09:05:26.692Z,11.37
2024-02-02T09:08:12.316Z,11.41
2024-02-02T09:11:24.665Z,11.44
2024-02-02T09:14:09.301Z,11.51
2024-02-02T09:16:46.084Z,11.56
2024-02-02T09:19:29.236Z,11.58
2024-02-02T09:22:00.721Z,11.62
2024-02-02T09:24:41.482Z,11.63
2024-02-02T09:27:13.104Z,11.67
2024-02-02T09:29:46.473Z,11.69
2024-02-02T09:32:16.620Z,11.69
2024-02-02T09:34:45.113Z,11.76
2024-02-02T09:37:23.678Z,11.85
2024-02-02T09:39:56.921Z,11.92
2024-02-02T09:42:53.578Z,11.97
2024-02-02T09:45:48.124Z,12.06
2024-02-02T09:48:39.060Z,12.06
2024-02-02T09:51:19.636Z,12.08
2024-02-02T09:54:19.679Z,12.13
2024-02-02T09:56:59.140Z,12.10
2024-02-02T09:59:37.790Z,12.11
2024-02-02T10:02:36.869Z,12.05
2024-02-02T10:05:14.967Z,12.06
2024-02-02T10:07:59.778Z,12.07
2024-02-02T10:10:49.032Z,12.07
2024-02-02T10:13:33.815Z,12.00
2024-02-02T10:16:15.195Z,12.05
2024-02-02T10:19:00.511Z,12.03
2024-02-02T10:21:40.969Z,12.06
2024-02-02T10:24:33.375Z,12.03
2024-02-02T10:27:18.660Z,12.01
2024-02-02T10:29:56.754Z,12.00
2024-02-02T10:32:58.485Z,11.99
2024-02-02T10:35:37.734Z,11.99
2024-02-02T10:38:20.534Z,12.01
2024-02-02T10:40:58.396Z,11.99
2024-02-02T10:43:44.549Z,12.01
2024-02-02T10:46:24.248Z,12.00
2024-02-02T10:49:27.327Z,12.02
2024-02-02T10:52:05.740Z,12.06
2024-02-02T10:54:52.336Z,12.07
2024-02-02T10:57:28.454Z,12.09
2024-02-02T11:00:08.881Z,12.09
2024-02-02T11:02:53.045Z,12.12
2024-02-02T11:05:30.816Z,12.21
2024-02-02T11:08:03.535Z,12.31
2024-02-02T11:10:36.422Z,12.34
2024-02-02T11:13:15.744Z,12.36
2024-02-02T11:15:56.951Z,12.35
2024-02-02T11:18:42.432Z,12.35
2024-02-02T11:21:26.126Z,12.39
2024-02-02T11:24:03.370Z,12.40
2024-02-02T11:26:40.371Z,12.39
2024-02-02T11:29:27.592Z,12.49
2024-02-02T11:32:04.637Z,12.49
2024-02-02T11:34:40.835Z,12.52
2024-02-02T11:37:19.421Z,12.53
2024-02-02T11:40:00.435Z,12.49
2024-02-02T11:42:30.982Z,12.49
2024-02-02T11:45:02.224Z,12.46
2024-02-02T11:47:33.134Z,12.44
2024-02-02T11:50:06.680Z,12.47
2024-02-02T11:52:42.412Z,12.57
2024-02-02T11:55:17.644Z,12.60
2024-02-02T11:57:51.245Z,12.55
2024-02-02T12:00:32.907Z,12.62
2024-02-02T12:03:12.533Z,12.67
2024-02-02T12:05:48.166Z,12.62
2024-02-02T12:08:29.507Z,12.62
2024-02-02T12:10:59.474Z,12.66
2024-02-02T12:13:32.596Z,12.68
2024-02-02T12:16:01.076Z,12.72
2024-02-02T12:18:30.694Z,12.75
2024-02-02T12:20:58.959Z,12.76
2024-02-02T12:23:27.365Z,12.79
2024-02-02T12:25:55.687Z,12.82
2024-02-02T12:28:23.856Z,12.89
2024-02-02T12:30:52.232Z,12.89
2024-02-02T12:33:22.595Z,12.88
2024-02-02T12:35:53.366Z,12.87
2024-02-02T12:38:23.189Z,12.89
2024-02-02T12:40:51.440Z,12.90
2024-02-02T12:43:25.151Z,12.90
2024-02-02T12:45:53.479Z,12.93
2024-02-02T12:48:22.409Z,13.00
2024-02-02T12:50:52.433Z,13.07
2024-02-02T12:53:21.447Z,13.11
2024-02-02T12:55:50.356Z,13.13
2024-02-02T12:58:18.671Z,13.16
2024-02-02T13:00:46.944Z,13.18
2024-02-02T13:03:15.293Z,13.20
2024-02-02T13:05:44.054Z,13.21
2024-02-02T13:08:14.270Z,13.20
2024-02-02T13:10:48.753Z,13.21
2024-02-02T13:13:24.886Z,13.19
2024-02-02T13:15:53.198Z,13.19
2024-02-02T13:18:22.731Z,13.24
2024-02-02T13:20:54.642Z,13.19
2024-02-02T13:23:31.861Z,13.15
2024-02-02T13:26:05.087Z,13.16
2024-02-02T13:28:40.275Z,13.17
2024-02-02T13:31:14.803Z,13.18
2024-02-02T13:33:46.317Z,13.18
2024-02-02T13:36:18.324Z,13.20
2024-02-02T13:38:48.874Z,13.17
2024-02-02T13:41:22.126Z,13.14
2024-02-02T13:43:58.475Z,13.10
2024-02-02T13:46:27.009Z,13.07
2024-02-02T13:48:59.677Z,13.03
2024-02-02T13:51:29.953Z,13.04
2024-02-02T13:53:59.932Z,13.01
2024-02-02T13:56:29.772Z,13.03
2024-02-02T13:58:58.242Z,13.07
2024-02-02T14:01:30.409Z,13.09
2024-02-02T14:03:59.995Z,13.13
2024-02-02T14:06:28.331Z,13.19
2024-02-02T14:08:57.372Z,13.21
2024-02-02T14:11:27.964Z,13.24
2024-02-02T14:13:58.641Z,13.26
2024-02-02T14:16:27.806Z,13.24
2024-02-02T14:19:02.699Z,13.24
2024-02-02T14:21:32.764Z,13.22
2024-02-02T14:24:09.917Z,13.17
2024-02-02T14:26:50.208Z,13.16
2024-02-02T14:29:18.748Z,13.15
2024-02-02T14:31:47.406Z,13.14
2024-02-02T14:34:15.799Z,13.14
2024-02-02T14:36:44.306Z,13.15
2024-02-02T14:39:14.915Z,13.14
2024-02-02T14:41:43.194Z,13.11
2024-02-02T14:44:13.397Z,13.05
2024-02-02T14:46:41.603Z,13.05
2024-02-02T14:49:10.411Z,13.05
2024-02-02T14:51:38.924Z,13.05
2024-02-02T14:54:07.947Z,13.08
2024-02-02T14:56:36.512Z,13.11
2024-02-02T14:59:09.561Z,13.11
2024-02-02T15:01:40.274Z,13.09
2024-02-02T15:04:09.808Z,13.11
2024-02-02T15:06:39.915Z,13.15
2024-02-02T15:09:14.079Z,13.17
2024-02-02T15:11:43.668Z,13.20
2024-02-02T15:14:13.853Z,13.20
2024-02-02T15:16:43.457Z,13.21
2024-02-02T15:19:11.860Z,13.21
2024-02-02T15:21:40.376Z,13.23
2024-02-02T15:24:08.870Z,13.22
2024-02-02T15:26:38.166Z,13.22
2024-02-02T15:29:06.345Z,13.19
2024-02-02T15:31:35.146Z,13.19
2024-02-02T15:34:07.700Z,13.18
2024-02-02T15:36:37.421Z,13.15
2024-02-02T15:39:19.119Z,13.13
2024-02-02T15:41:55.319Z,13.13
2024-02-02T15:44:23.576Z,13.09
2024-02-02T15:46:51.867Z,13.08
2024-02-02T15:49:21.801Z,13.08
2024-02-02T15:51:50.053Z,13.11
2024-02-02T15:54:18.238Z,13.09
2024-02-02T15:56:46.441Z,13.08
2024-02-02T15:59:16.326Z,13.03
2024-02-02T16:01:47.439Z,13.04
2024-02-02T16:04:16.721Z,13.02
2024-02-02T16:06:46.559Z,12.99
2024-02-02T16:09:15.047Z,12.96
2024-02-02T16:11:43.294Z,12.94
2024-02-02T16:14:11.419Z,12.96
2024-02-02T16:16:39.589Z,12.97
2024-02-02T16:19:09.235Z,12.92
2024-02-02T16:21:37.485Z,12.91
2024-02-02T16:24:09.877Z,12.91
2024-02-02T16:26:39.440Z,12.89
2024-02-02T16:29:07.693Z,12.92
2024-02-02T16:31:35.778Z,12.93
2024-02-02T16:34:04.668Z,12.92
2024-02-02T16:36:33.122Z,13.02
2024-02-02T16:39:01.386Z,13.03
2024-02-02T16:41:30.881Z,13.01
2024-02-02T16:43:58.984Z,13.02
2024-02-02T16:46:27.159Z,12.97
2024-02-02T16:48:55.393Z,12.97
2024-02-02T16:51:23.599Z,12.98
2024-02-02T16:53:51.845Z,12.97
2024-02-02T16:56:21.151Z,12.95
2024-02-02T16:58:50.715Z,12.96
2024-02-02T17:01:29.838Z,12.93
2024-02-02T17:03:58.413Z,12.92
2024-02-02T17:06:26.860Z,12.93
2024-02-02T17:08:55.499Z,12.92
2024-02-02T17:11:24.025Z,12.94
2024-02-02T17:13:53.901Z,12.90
2024-02-02T17:16:22.786Z,12.91
2024-02-02T17:18:51.104Z,12.92
2024-02-02T17:21:19.400Z,12.93
2024-02-02T17:23:47.664Z,12.91
2024-02-02T17:26:16.352Z,12.92
2024-02-02T17:28:44.819Z,12.91
2024-02-02T17:31:15.759Z,12.93
2024-02-02T17:33:44.612Z,12.92
2024-02-02T17:36:14.473Z,12.93
2024-02-02T17:38:43.097Z,12.94
2024-02-02T17:41:15.767Z,12.94
2024-02-02T17:43:44.994Z,12.95
2024-02-02T17:46:16.893Z,12.93
2024-02-02T17:48:47.483Z,12.95
2024-02-02T17:51:20.258Z,12.94
2024-02-02T17:53:48.586Z,12.99
2024-02-02T17:56:18.444Z,12.99
2024-02-02T17:58:47.605Z,12.96
2024-02-02T18:01:18.403Z,12.92
2024-02-02T18:03:47.406Z,12.91
2024-02-02T18:06:15.911Z,12.91
2024-02-02T18:08:44.246Z,12.92
2024-02-02T18:11:12.465Z,12.93
2024-02-02T18:13:40.570Z,12.90
2024-02-02T18:16:10.430Z,12.91
2024-02-02T18:18:41.536Z,12.91
2024-02-02T18:21:10.802Z,12.92
2024-02-02T18:23:39.096Z,12.89
2024-02-02T18:26:07.420Z,12.88
2024-02-02T18:28:35.584Z,12.90
2024-02-02T18:31:04.543Z,12.92
2024-02-02T18:33:32.897Z,12.91
2024-02-02T18:36:03.414Z,12.92
2024-02-02T18:38:33.990Z,12.92
2024-02-02T18:41:02.183Z,12.91
2024-02-02T18:43:30.366Z,12.91
2024-02-02T18:45:58.535Z,12.91
2024-02-02T18:48:27.845Z,12.90
2024-02-02T18:50:56.100Z,12.91
2024-02-02T18:53:25.613Z,12.93
2024-02-02T18:55:53.867Z,12.93
2024-02-02T18:58:31.888Z,12.91
2024-02-02T19:01:04.295Z,12.85
2024-02-02T19:03:32.849Z,12.83
2024-02-02T19:06:02.321Z,12.84
2024-02-02T19:08:31.960Z,12.82
2024-02-02T19:11:02.411Z,12.83
2024-02-02T19:13:30.610Z,12.81
2024-02-02T19:15:59.056Z,12.79
2024-02-02T19:18:27.376Z,12.75
2024-02-02T19:20:55.624Z,12.74
2024-02-02T19:23:23.827Z,12.72
2024-02-02T19:25:53.437Z,12.73
2024-02-02T19:28:21.705Z,12.74
2024-02-02T19:30:50.967Z,12.75
2024-02-02T19:33:19.455Z,12.76
2024-02-02T19:35:48.884Z,12.74
2024-02-02T19:38:17.304Z,12.77
2024-02-02T19:40:45.700Z,12.79
2024-02-02T19:43:15.420Z,12.80
2024-02-02T19:45:46.851Z,12.81
2024-02-02T19:48:15.085Z,12.82
2024-02-02T19:50:43.373Z,12.81
2024-02-02T19:53:12.094Z,12.81
2024-02-02T19:55:40.230Z,12.82
2024-02-02T19:58:08.353Z,12.83
2024-02-02T20:00:40.011Z,12.85
2024-02-02T20:03:08.984Z,12.84
2024-02-02T20:05:37.237Z,12.84
2024-02-02T20:08:08.483Z,12.87
2024-02-02T20:10:39.815Z,12.89
2024-02-02T20:13:09.078Z,12.88
2024-02-02T20:15:38.772Z,12.90
2024-02-02T20:18:07.673Z,12.88
2024-02-02T20:20:36.316Z,12.88
2024-02-02T20:23:04.494Z,12.86
2024-02-02T20:25:34.301Z,12.86
2024-02-02T20:28:04.599Z,12.87
2024-02-02T20:30:34.509Z,12.87
2024-02-02T20:33:04.455Z,12.87
2024-02-02T20:35:33.187Z,12.88
2024-02-02T20:38:01.607Z,12.89
2024-02-02T20:40:29.918Z,12.88
2024-02-02T20:42:59.043Z,12.88
2024-02-02T20:45:27.425Z,12.88
2024-02-02T20:47:55.681Z,12.88
2024-02-02T20:50:26.855Z,12.88
2024-02-02T20:52:55.283Z,12.85
2024-02-02T20:55:23.784Z,12.84
2024-02-02T20:57:52.048Z,12.85
2024-02-02T21:00:20.911Z,12.86
2024-02-02T21:02:49.174Z,12.86
2024-02-02T21:05:17.387Z,12.87
2024-02-02T21:07:47.169Z,12.87
2024-02-02T21:10:15.965Z,12.85
2024-02-02T21:12:44.147Z,12.85
2024-02-02T21:15:12.503Z,12.83
2024-02-02T21:17:46.271Z,12.83
2024-02-02T21:20:14.889Z,12.85
2024-02-02T21:22:43.158Z,12.83
2024-02-02T21:25:12.922Z,12.83
2024-02-02T21:27:41.160Z,12.82
2024-02-02T21:30:10.947Z,12.81
2024-02-02T21:32:39.139Z,12.82
2024-02-02T21:35:08.477Z,12.83
2024-02-02T21:37:36.682Z,12.81
2024-02-02T21:40:06.033Z,12.82
2024-02-02T21:42:35.562Z,12.84
2024-02-02T21:45:03.916Z,12.83
2024-02-02T21:47:32.124Z,12.82
2024-02-02T21:50:01.111Z,12.82
2024-02-02T21:52:29.566Z,12.83
2024-02-02T21:54:57.941Z,12.80
2024-02-02T21:57:26.166Z,12.78
2024-02-02T21:59:55.763Z,12.81
2024-02-02T22:02:23.962Z,12.81
2024-02-02T22:04:54.322Z,12.80
2024-02-02T22:07:22.729Z,12.80
2024-02-02T22:09:51.032Z,12.83
2024-02-02T22:12:19.163Z,12.83
2024-02-02T22:14:50.205Z,12.83
2024-02-02T22:17:20.188Z,12.81
2024-02-02T22:19:48.502Z,12.82
2024-02-02T22:22:16.697Z,12.84
2024-02-02T22:24:45.203Z,12.86
2024-02-02T22:27:15.282Z,12.85
2024-02-02T22:29:44.875Z,12.83
2024-02-02T22:32:19.789Z,12.83
2024-02-02T22:34:50.073Z,12.84
2024-02-02T22:37:18.386Z,12.84
2024-02-02T22:39:46.649Z,12.82
2024-02-02T22:42:14.981Z,12.84
2024-02-02T22:44:43.141Z,12.85
2024-02-02T22:47:11.298Z,12.84
2024-02-02T22:49:39.558Z,12.83
2024-02-02T22:52:09.375Z,12.82
2024-02-02T22:54:37.612Z,12.82
2024-02-02T22:57:06.130Z,12.81
2024-02-02T22:59:34.231Z,12.80
2024-02-02T23:02:02.549Z,12.77
2024-02-02T23:04:30.772Z,12.78
2024-02-02T23:06:58.941Z,12.77
2024-02-02T23:09:28.527Z,12.77
2024-02-02T23:11:56.847Z,12.75
2024-02-02T23:14:25.047Z,12.76
2024-02-02T23:16:53.244Z,12.75
2024-02-02T23:19:21.656Z,12.75
2024-02-02T23:21:49.889Z,12.74
2024-02-02T23:24:18.212Z,12.70
2024-02-02T23:26:47.797Z,12.73
2024-02-02T23:29:15.914Z,12.71
2024-02-02T23:31:43.998Z,12.71
2024-02-02T23:34:12.313Z,12.69
2024-02-02T23:36:40.631Z,12.71
2024-02-02T23:39:10.165Z,12.69
2024-02-02T23:41:38.472Z,12.72
2024-02-02T23:44:08.347Z,12.70
2024-02-02T23:46:36.922Z,12.72
2024-02-02T23:49:05.903Z,12.74
2024-02-02T23:51:34.250Z,12.72
2024-02-02T23:54:02.797Z,12.72
2024-02-02T23:56:31.225Z,12.73
2024-02-02T23:58:59.299Z,12.71
